sensor_id;sensor_type;location;lat;lon;timestamp;P1;durP1;ratioP1;P2;durP2;ratioP2
54197;SDS011;40105;52.366;17.000;2023-10-31T00:00:44;8.43;;;4.38;;
54197;SDS011;40105;52.366;17.000;2023-10-31T00:04:08;11.32;;;5.40;;
54197;SDS011;40105;52.366;17.000;2023-10-31T00:07:32;18.65;;;4.85;;
54197;SDS011;40105;52.366;17.000;2023-10-31T00:10:55;8.85;;;4.30;;
54197;SDS011;40105;52.366;17.000;2023-10-31T00:14:19;20.88;;;5.03;;
54197;SDS011;40105;52.366;17.000;2023-10-31T00:17:43;7.85;;;4.60;;
54197;SDS011;40105;52.366;17.000;2023-10-31T00:21:07;11.05;;;5.45;;
54197;SDS011;40105;52.366;17.000;2023-10-31T00:24:31;13.65;;;4.80;;
54197;SDS011;40105;52.366;17.000;2023-10-31T00:27:54;9.45;;;4.72;;
54197;SDS011;40105;52.366;17.000;2023-10-31T00:31:18;13.20;;;5.07;;
54197;SDS011;40105;52.366;17.000;2023-10-31T00:34:42;9.05;;;4.55;;
54197;SDS011;40105;52.366;17.000;2023-10-31T00:38:06;10.45;;;5.43;;
54197;SDS011;40105;52.366;17.000;2023-10-31T00:41:30;9.68;;;4.88;;
54197;SDS011;40105;52.366;17.000;2023-10-31T00:44:54;8.13;;;3.92;;
54197;SDS011;40105;52.366;17.000;2023-10-31T00:48:18;16.75;;;4.93;;
54197;SDS011;40105;52.366;17.000;2023-10-31T00:51:42;19.20;;;4.55;;
54197;SDS011;40105;52.366;17.000;2023-10-31T00:55:06;14.00;;;5.18;;
54197;SDS011;40105;52.366;17.000;2023-10-31T00:58:30;12.52;;;4.90;;
54197;SDS011;40105;52.366;17.000;2023-10-31T01:01:54;9.10;;;4.22;;
54197;SDS011;40105;52.366;17.000;2023-10-31T01:05:18;8.20;;;4.57;;
54197;SDS011;40105;52.366;17.000;2023-10-31T01:08:42;16.33;;;4.53;;
54197;SDS011;40105;52.366;17.000;2023-10-31T01:12:06;13.38;;;4.85;;
54197;SDS011;40105;52.366;17.000;2023-10-31T01:15:30;5.90;;;3.65;;
54197;SDS011;40105;52.366;17.000;2023-10-31T01:18:53;6.68;;;3.83;;
54197;SDS011;40105;52.366;17.000;2023-10-31T01:22:17;10.07;;;3.83;;
54197;SDS011;40105;52.366;17.000;2023-10-31T01:25:41;8.82;;;4.03;;
54197;SDS011;40105;52.366;17.000;2023-10-31T01:29:05;8.07;;;4.40;;
54197;SDS011;40105;52.366;17.000;2023-10-31T01:32:29;6.15;;;3.03;;
54197;SDS011;40105;52.366;17.000;2023-10-31T01:35:53;8.80;;;4.35;;
54197;SDS011;40105;52.366;17.000;2023-10-31T01:39:16;5.85;;;3.45;;
54197;SDS011;40105;52.366;17.000;2023-10-31T01:42:40;7.85;;;3.28;;
54197;SDS011;40105;52.366;17.000;2023-10-31T01:46:04;6.78;;;3.72;;
54197;SDS011;40105;52.366;17.000;2023-10-31T01:49:28;8.20;;;3.55;;
54197;SDS011;40105;52.366;17.000;2023-10-31T01:52:53;5.88;;;3.63;;
54197;SDS011;40105;52.366;17.000;2023-10-31T01:56:17;6.40;;;3.85;;
54197;SDS011;40105;52.366;17.000;2023-10-31T01:59:43;9.10;;;4.43;;
54197;SDS011;40105;52.366;17.000;2023-10-31T02:03:07;10.85;;;4.10;;
54197;SDS011;40105;52.366;17.000;2023-10-31T02:06:31;9.48;;;4.53;;
54197;SDS011;40105;52.366;17.000;2023-10-31T02:09:55;7.05;;;3.78;;
54197;SDS011;40105;52.366;17.000;2023-10-31T02:13:19;13.65;;;4.57;;
54197;SDS011;40105;52.366;17.000;2023-10-31T02:16:43;9.82;;;4.10;;
54197;SDS011;40105;52.366;17.000;2023-10-31T02:20:07;10.63;;;3.40;;
54197;SDS011;40105;52.366;17.000;2023-10-31T02:23:31;5.57;;;2.95;;
54197;SDS011;40105;52.366;17.000;2023-10-31T02:26:55;8.70;;;3.92;;
54197;SDS011;40105;52.366;17.000;2023-10-31T02:30:18;8.63;;;3.90;;
54197;SDS011;40105;52.366;17.000;2023-10-31T02:33:42;15.20;;;5.30;;
54197;SDS011;40105;52.366;17.000;2023-10-31T02:37:06;6.30;;;3.72;;
54197;SDS011;40105;52.366;17.000;2023-10-31T02:40:30;9.82;;;4.25;;
54197;SDS011;40105;52.366;17.000;2023-10-31T02:43:54;9.57;;;4.25;;
54197;SDS011;40105;52.366;17.000;2023-10-31T02:47:18;11.95;;;4.25;;
54197;SDS011;40105;52.366;17.000;2023-10-31T02:50:41;7.18;;;3.78;;
54197;SDS011;40105;52.366;17.000;2023-10-31T02:54:05;5.90;;;3.13;;
54197;SDS011;40105;52.366;17.000;2023-10-31T02:57:29;12.57;;;3.67;;
54197;SDS011;40105;52.366;17.000;2023-10-31T03:00:53;13.15;;;4.28;;
54197;SDS011;40105;52.366;17.000;2023-10-31T03:04:17;9.52;;;3.78;;
54197;SDS011;40105;52.366;17.000;2023-10-31T03:07:41;6.43;;;3.00;;
54197;SDS011;40105;52.366;17.000;2023-10-31T03:11:05;5.78;;;3.15;;
54197;SDS011;40105;52.366;17.000;2023-10-31T03:14:29;6.45;;;3.60;;
54197;SDS011;40105;52.366;17.000;2023-10-31T03:17:52;7.78;;;2.95;;
54197;SDS011;40105;52.366;17.000;2023-10-31T03:21:17;7.63;;;3.63;;
54197;SDS011;40105;52.366;17.000;2023-10-31T03:24:40;4.63;;;2.58;;
54197;SDS011;40105;52.366;17.000;2023-10-31T03:28:07;7.00;;;3.38;;
54197;SDS011;40105;52.366;17.000;2023-10-31T03:31:31;8.10;;;2.60;;
54197;SDS011;40105;52.366;17.000;2023-10-31T03:34:54;5.93;;;3.20;;
54197;SDS011;40105;52.366;17.000;2023-10-31T03:38:18;9.77;;;3.42;;
54197;SDS011;40105;52.366;17.000;2023-10-31T03:41:42;15.07;;;3.60;;
54197;SDS011;40105;52.366;17.000;2023-10-31T03:45:06;9.18;;;3.95;;
54197;SDS011;40105;52.366;17.000;2023-10-31T03:48:30;6.20;;;3.78;;
54197;SDS011;40105;52.366;17.000;2023-10-31T03:51:54;6.50;;;2.88;;
54197;SDS011;40105;52.366;17.000;2023-10-31T03:55:18;10.93;;;3.90;;
54197;SDS011;40105;52.366;17.000;2023-10-31T03:58:42;9.95;;;3.97;;
54197;SDS011;40105;52.366;17.000;2023-10-31T04:02:06;6.38;;;2.72;;
54197;SDS011;40105;52.366;17.000;2023-10-31T04:05:30;9.00;;;3.97;;
54197;SDS011;40105;52.366;17.000;2023-10-31T04:08:54;5.40;;;3.08;;
54197;SDS011;40105;52.366;17.000;2023-10-31T04:12:18;7.88;;;4.10;;
54197;SDS011;40105;52.366;17.000;2023-10-31T04:15:42;5.47;;;3.45;;
54197;SDS011;40105;52.366;17.000;2023-10-31T04:19:10;15.75;;;3.92;;
54197;SDS011;40105;52.366;17.000;2023-10-31T04:22:34;10.82;;;3.63;;
54197;SDS011;40105;52.366;17.000;2023-10-31T04:25:58;8.05;;;3.90;;
54197;SDS011;40105;52.366;17.000;2023-10-31T04:29:22;7.05;;;4.15;;
54197;SDS011;40105;52.366;17.000;2023-10-31T04:32:46;6.47;;;3.80;;
54197;SDS011;40105;52.366;17.000;2023-10-31T04:36:10;8.18;;;4.57;;
54197;SDS011;40105;52.366;17.000;2023-10-31T04:39:34;6.72;;;3.97;;
54197;SDS011;40105;52.366;17.000;2023-10-31T04:42:58;4.72;;;3.13;;
54197;SDS011;40105;52.366;17.000;2023-10-31T04:46:22;6.40;;;3.03;;
54197;SDS011;40105;52.366;17.000;2023-10-31T04:49:46;9.00;;;3.47;;
54197;SDS011;40105;52.366;17.000;2023-10-31T04:53:09;5.85;;;4.00;;
54197;SDS011;40105;52.366;17.000;2023-10-31T04:56:33;7.20;;;4.57;;
54197;SDS011;40105;52.366;17.000;2023-10-31T04:59:57;4.85;;;3.65;;
54197;SDS011;40105;52.366;17.000;2023-10-31T05:03:21;8.23;;;3.92;;
54197;SDS011;40105;52.366;17.000;2023-10-31T05:06:45;11.48;;;3.95;;
54197;SDS011;40105;52.366;17.000;2023-10-31T05:10:09;6.28;;;3.70;;
54197;SDS011;40105;52.366;17.000;2023-10-31T05:13:33;12.90;;;3.75;;
54197;SDS011;40105;52.366;17.000;2023-10-31T05:16:56;8.98;;;4.18;;
54197;SDS011;40105;52.366;17.000;2023-10-31T05:20:20;5.45;;;3.00;;
54197;SDS011;40105;52.366;17.000;2023-10-31T05:23:45;11.35;;;3.58;;
54197;SDS011;40105;52.366;17.000;2023-10-31T05:27:09;6.20;;;3.78;;
54197;SDS011;40105;52.366;17.000;2023-10-31T05:30:33;5.22;;;3.70;;
54197;SDS011;40105;52.366;17.000;2023-10-31T05:33:57;5.15;;;3.78;;
54197;SDS011;40105;52.366;17.000;2023-10-31T05:37:21;6.00;;;3.45;;
54197;SDS011;40105;52.366;17.000;2023-10-31T05:40:45;13.13;;;5.22;;
54197;SDS011;40105;52.366;17.000;2023-10-31T05:44:08;5.55;;;3.70;;
54197;SDS011;40105;52.366;17.000;2023-10-31T05:47:33;7.07;;;3.47;;
54197;SDS011;40105;52.366;17.000;2023-10-31T05:50:56;9.95;;;4.32;;
54197;SDS011;40105;52.366;17.000;2023-10-31T05:54:20;9.55;;;4.03;;
54197;SDS011;40105;52.366;17.000;2023-10-31T05:57:44;10.05;;;4.43;;
54197;SDS011;40105;52.366;17.000;2023-10-31T06:01:08;6.05;;;3.47;;
54197;SDS011;40105;52.366;17.000;2023-10-31T06:04:32;11.98;;;4.15;;
54197;SDS011;40105;52.366;17.000;2023-10-31T06:07:56;7.28;;;2.97;;
54197;SDS011;40105;52.366;17.000;2023-10-31T06:11:20;12.80;;;4.85;;
54197;SDS011;40105;52.366;17.000;2023-10-31T06:14:43;8.38;;;4.20;;
54197;SDS011;40105;52.366;17.000;2023-10-31T06:18:07;12.35;;;5.07;;
54197;SDS011;40105;52.366;17.000;2023-10-31T06:21:31;13.82;;;5.95;;
54197;SDS011;40105;52.366;17.000;2023-10-31T06:24:55;15.60;;;4.60;;
54197;SDS011;40105;52.366;17.000;2023-10-31T06:28:19;12.50;;;6.45;;
54197;SDS011;40105;52.366;17.000;2023-10-31T06:31:43;7.25;;;4.97;;
54197;SDS011;40105;52.366;17.000;2023-10-31T06:35:07;7.88;;;4.75;;
54197;SDS011;40105;52.366;17.000;2023-10-31T06:38:31;14.63;;;4.75;;
54197;SDS011;40105;52.366;17.000;2023-10-31T06:41:56;10.55;;;4.80;;
54197;SDS011;40105;52.366;17.000;2023-10-31T06:45:20;11.40;;;5.30;;
54197;SDS011;40105;52.366;17.000;2023-10-31T06:48:43;17.77;;;5.05;;
54197;SDS011;40105;52.366;17.000;2023-10-31T06:52:07;8.95;;;4.38;;
54197;SDS011;40105;52.366;17.000;2023-10-31T06:55:31;5.95;;;3.15;;
54197;SDS011;40105;52.366;17.000;2023-10-31T06:58:55;13.95;;;4.05;;
54197;SDS011;40105;52.366;17.000;2023-10-31T07:02:19;7.30;;;3.67;;
54197;SDS011;40105;52.366;17.000;2023-10-31T07:05:43;11.32;;;2.83;;
54197;SDS011;40105;52.366;17.000;2023-10-31T07:09:06;4.30;;;2.25;;
54197;SDS011;40105;52.366;17.000;2023-10-31T07:12:32;5.80;;;3.25;;
54197;SDS011;40105;52.366;17.000;2023-10-31T07:15:55;2.70;;;2.10;;
54197;SDS011;40105;52.366;17.000;2023-10-31T07:19:20;10.73;;;4.10;;
54197;SDS011;40105;52.366;17.000;2023-10-31T07:22:44;5.40;;;2.35;;
54197;SDS011;40105;52.366;17.000;2023-10-31T07:26:09;16.88;;;3.63;;
54197;SDS011;40105;52.366;17.000;2023-10-31T07:29:33;9.82;;;3.95;;
54197;SDS011;40105;52.366;17.000;2023-10-31T07:32:57;6.40;;;3.75;;
54197;SDS011;40105;52.366;17.000;2023-10-31T07:36:21;5.78;;;3.17;;
54197;SDS011;40105;52.366;17.000;2023-10-31T07:39:45;6.43;;;3.75;;
54197;SDS011;40105;52.366;17.000;2023-10-31T07:43:09;6.25;;;3.33;;
54197;SDS011;40105;52.366;17.000;2023-10-31T07:46:32;4.88;;;2.72;;
54197;SDS011;40105;52.366;17.000;2023-10-31T07:49:56;5.40;;;3.03;;
54197;SDS011;40105;52.366;17.000;2023-10-31T07:53:20;4.25;;;2.58;;
54197;SDS011;40105;52.366;17.000;2023-10-31T07:56:44;6.10;;;3.33;;
54197;SDS011;40105;52.366;17.000;2023-10-31T08:00:11;3.83;;;2.38;;
54197;SDS011;40105;52.366;17.000;2023-10-31T08:03:39;3.10;;;2.20;;
54197;SDS011;40105;52.366;17.000;2023-10-31T08:07:03;4.32;;;2.10;;
54197;SDS011;40105;52.366;17.000;2023-10-31T08:10:27;6.45;;;3.10;;
54197;SDS011;40105;52.366;17.000;2023-10-31T08:13:51;6.00;;;3.38;;
54197;SDS011;40105;52.366;17.000;2023-10-31T08:17:15;3.92;;;2.42;;
54197;SDS011;40105;52.366;17.000;2023-10-31T08:20:39;9.75;;;2.72;;
54197;SDS011;40105;52.366;17.000;2023-10-31T08:24:03;5.07;;;2.70;;
54197;SDS011;40105;52.366;17.000;2023-10-31T08:27:27;3.30;;;2.30;;
54197;SDS011;40105;52.366;17.000;2023-10-31T08:30:51;9.10;;;3.35;;
54197;SDS011;40105;52.366;17.000;2023-10-31T08:34:15;4.57;;;1.90;;
54197;SDS011;40105;52.366;17.000;2023-10-31T08:37:39;2.13;;;1.25;;
54197;SDS011;40105;52.366;17.000;2023-10-31T08:41:03;2.40;;;1.60;;
54197;SDS011;40105;52.366;17.000;2023-10-31T08:44:26;4.22;;;2.47;;
54197;SDS011;40105;52.366;17.000;2023-10-31T08:47:50;3.60;;;2.00;;
54197;SDS011;40105;52.366;17.000;2023-10-31T08:54:38;4.07;;;1.38;;
54197;SDS011;40105;52.366;17.000;2023-10-31T08:58:02;2.17;;;1.42;;
54197;SDS011;40105;52.366;17.000;2023-10-31T09:01:26;2.17;;;1.55;;
54197;SDS011;40105;52.366;17.000;2023-10-31T09:04:50;2.92;;;1.80;;
54197;SDS011;40105;52.366;17.000;2023-10-31T09:08:14;3.88;;;2.22;;
54197;SDS011;40105;52.366;17.000;2023-10-31T09:11:38;4.78;;;1.40;;
54197;SDS011;40105;52.366;17.000;2023-10-31T09:15:02;4.05;;;1.70;;
54197;SDS011;40105;52.366;17.000;2023-10-31T09:18:26;2.38;;;1.23;;
54197;SDS011;40105;52.366;17.000;2023-10-31T09:21:50;2.10;;;0.98;;
54197;SDS011;40105;52.366;17.000;2023-10-31T09:25:14;1.88;;;1.27;;
54197;SDS011;40105;52.366;17.000;2023-10-31T09:28:37;1.73;;;1.08;;
54197;SDS011;40105;52.366;17.000;2023-10-31T09:32:01;1.88;;;1.40;;
54197;SDS011;40105;52.366;17.000;2023-10-31T09:35:26;4.45;;;2.17;;
54197;SDS011;40105;52.366;17.000;2023-10-31T09:38:49;2.40;;;0.88;;
54197;SDS011;40105;52.366;17.000;2023-10-31T09:42:13;3.17;;;2.03;;
54197;SDS011;40105;52.366;17.000;2023-10-31T09:45:37;1.55;;;0.90;;
54197;SDS011;40105;52.366;17.000;2023-10-31T09:49:01;1.70;;;1.10;;
54197;SDS011;40105;52.366;17.000;2023-10-31T09:52:25;2.75;;;1.38;;
54197;SDS011;40105;52.366;17.000;2023-10-31T09:55:50;1.92;;;1.17;;
54197;SDS011;40105;52.366;17.000;2023-10-31T09:59:14;3.70;;;1.50;;
54197;SDS011;40105;52.366;17.000;2023-10-31T10:02:38;1.80;;;1.25;;
54197;SDS011;40105;52.366;17.000;2023-10-31T10:06:02;7.10;;;4.07;;
54197;SDS011;40105;52.366;17.000;2023-10-31T10:09:27;3.95;;;1.63;;
54197;SDS011;40105;52.366;17.000;2023-10-31T10:12:51;1.05;;;0.95;;
54197;SDS011;40105;52.366;17.000;2023-10-31T10:16:27;0.55;;;0.40;;
54197;SDS011;40105;52.366;17.000;2023-10-31T10:20:04;6.53;;;2.15;;
54197;SDS011;40105;52.366;17.000;2023-10-31T10:23:29;1.45;;;1.15;;
54197;SDS011;40105;52.366;17.000;2023-10-31T10:26:54;1.48;;;1.00;;
54197;SDS011;40105;52.366;17.000;2023-10-31T10:30:17;1.40;;;1.20;;
54197;SDS011;40105;52.366;17.000;2023-10-31T10:33:41;2.42;;;1.55;;
54197;SDS011;40105;52.366;17.000;2023-10-31T10:37:07;3.95;;;1.77;;
54197;SDS011;40105;52.366;17.000;2023-10-31T10:40:40;1.20;;;0.82;;
54197;SDS011;40105;52.366;17.000;2023-10-31T10:44:05;1.80;;;1.20;;
54197;SDS011;40105;52.366;17.000;2023-10-31T10:47:31;8.18;;;1.13;;
54197;SDS011;40105;52.366;17.000;2023-10-31T10:51:29;1.58;;;1.00;;
54197;SDS011;40105;52.366;17.000;2023-10-31T10:54:54;1.08;;;0.88;;
54197;SDS011;40105;52.366;17.000;2023-10-31T11:02:34;2.20;;;1.25;;
54197;SDS011;40105;52.366;17.000;2023-10-31T11:05:58;1.98;;;1.15;;
54197;SDS011;40105;52.366;17.000;2023-10-31T11:09:23;1.33;;;0.93;;
54197;SDS011;40105;52.366;17.000;2023-10-31T11:12:47;1.98;;;1.10;;
54197;SDS011;40105;52.366;17.000;2023-10-31T11:16:15;1.15;;;0.90;;
54197;SDS011;40105;52.366;17.000;2023-10-31T11:19:51;1.05;;;0.93;;
54197;SDS011;40105;52.366;17.000;2023-10-31T11:23:16;1.50;;;1.05;;
54197;SDS011;40105;52.366;17.000;2023-10-31T11:26:40;1.60;;;0.88;;
54197;SDS011;40105;52.366;17.000;2023-10-31T11:30:29;1.65;;;1.08;;
54197;SDS011;40105;52.366;17.000;2023-10-31T11:33:53;0.43;;;0.43;;
54197;SDS011;40105;52.366;17.000;2023-10-31T11:37:18;0.63;;;0.60;;
54197;SDS011;40105;52.366;17.000;2023-10-31T11:44:14;1.85;;;0.95;;
54197;SDS011;40105;52.366;17.000;2023-10-31T11:47:47;0.93;;;0.70;;
54197;SDS011;40105;52.366;17.000;2023-10-31T11:51:16;2.03;;;0.70;;
54197;SDS011;40105;52.366;17.000;2023-10-31T11:54:41;1.45;;;0.50;;
54197;SDS011;40105;52.366;17.000;2023-10-31T12:01:45;0.20;;;0.20;;
54197;SDS011;40105;52.366;17.000;2023-10-31T12:05:21;0.43;;;0.40;;
54197;SDS011;40105;52.366;17.000;2023-10-31T12:08:46;2.40;;;0.63;;
54197;SDS011;40105;52.366;17.000;2023-10-31T12:12:13;0.28;;;0.22;;
54197;SDS011;40105;52.366;17.000;2023-10-31T12:15:37;2.38;;;0.52;;
54197;SDS011;40105;52.366;17.000;2023-10-31T12:19:02;0.55;;;0.35;;
54197;SDS011;40105;52.366;17.000;2023-10-31T12:22:36;1.45;;;0.55;;
54197;SDS011;40105;52.366;17.000;2023-10-31T12:26:00;0.90;;;0.60;;
54197;SDS011;40105;52.366;17.000;2023-10-31T12:29:25;0.47;;;0.30;;
54197;SDS011;40105;52.366;17.000;2023-10-31T12:32:55;0.20;;;0.20;;
54197;SDS011;40105;52.366;17.000;2023-10-31T12:36:19;1.85;;;0.73;;
54197;SDS011;40105;52.366;17.000;2023-10-31T12:39:43;0.25;;;0.25;;
54197;SDS011;40105;52.366;17.000;2023-10-31T12:43:10;1.27;;;0.80;;
54197;SDS011;40105;52.366;17.000;2023-10-31T12:46:41;0.98;;;0.68;;
54197;SDS011;40105;52.366;17.000;2023-10-31T12:50:05;0.40;;;0.40;;
54197;SDS011;40105;52.366;17.000;2023-10-31T12:53:33;4.53;;;0.70;;
54197;SDS011;40105;52.366;17.000;2023-10-31T13:00:31;1.63;;;0.75;;
54197;SDS011;40105;52.366;17.000;2023-10-31T13:03:56;1.08;;;0.98;;
54197;SDS011;40105;52.366;17.000;2023-10-31T13:07:32;0.85;;;0.60;;
54197;SDS011;40105;52.366;17.000;2023-10-31T13:10:59;0.93;;;0.73;;
54197;SDS011;40105;52.366;17.000;2023-10-31T13:14:27;1.95;;;0.70;;
54197;SDS011;40105;52.366;17.000;2023-10-31T13:17:51;5.18;;;0.82;;
54197;SDS011;40105;52.366;17.000;2023-10-31T13:21:15;7.55;;;1.27;;
54197;SDS011;40105;52.366;17.000;2023-10-31T13:24:39;1.38;;;0.80;;
54197;SDS011;40105;52.366;17.000;2023-10-31T13:28:03;0.90;;;0.70;;
54197;SDS011;40105;52.366;17.000;2023-10-31T13:31:27;0.90;;;0.73;;
54197;SDS011;40105;52.366;17.000;2023-10-31T13:34:50;3.17;;;0.55;;
54197;SDS011;40105;52.366;17.000;2023-10-31T13:38:14;1.73;;;0.57;;
54197;SDS011;40105;52.366;17.000;2023-10-31T13:41:38;1.60;;;0.70;;
54197;SDS011;40105;52.366;17.000;2023-10-31T13:45:02;1.08;;;0.45;;
54197;SDS011;40105;52.366;17.000;2023-10-31T13:48:27;0.77;;;0.50;;
54197;SDS011;40105;52.366;17.000;2023-10-31T13:51:51;0.90;;;0.60;;
54197;SDS011;40105;52.366;17.000;2023-10-31T13:55:15;0.38;;;0.35;;
54197;SDS011;40105;52.366;17.000;2023-10-31T13:58:39;0.70;;;0.63;;
54197;SDS011;40105;52.366;17.000;2023-10-31T14:02:04;1.55;;;0.68;;
54197;SDS011;40105;52.366;17.000;2023-10-31T14:05:28;5.47;;;1.20;;
54197;SDS011;40105;52.366;17.000;2023-10-31T14:08:57;0.43;;;0.40;;
54197;SDS011;40105;52.366;17.000;2023-10-31T14:12:22;1.90;;;0.93;;
54197;SDS011;40105;52.366;17.000;2023-10-31T14:15:46;3.95;;;0.75;;
54197;SDS011;40105;52.366;17.000;2023-10-31T14:19:10;8.90;;;0.57;;
54197;SDS011;40105;52.366;17.000;2023-10-31T14:22:34;0.47;;;0.47;;
54197;SDS011;40105;52.366;17.000;2023-10-31T14:25:58;0.32;;;0.22;;
54197;SDS011;40105;52.366;17.000;2023-10-31T14:29:23;0.30;;;0.30;;
54197;SDS011;40105;52.366;17.000;2023-10-31T14:32:47;1.60;;;0.57;;
54197;SDS011;40105;52.366;17.000;2023-10-31T14:36:11;2.47;;;0.60;;
54197;SDS011;40105;52.366;17.000;2023-10-31T14:39:35;3.50;;;0.98;;
54197;SDS011;40105;52.366;17.000;2023-10-31T14:42:59;1.30;;;0.68;;
54197;SDS011;40105;52.366;17.000;2023-10-31T14:46:23;1.00;;;0.68;;
54197;SDS011;40105;52.366;17.000;2023-10-31T14:49:46;1.42;;;1.02;;
54197;SDS011;40105;52.366;17.000;2023-10-31T14:53:10;0.77;;;0.60;;
54197;SDS011;40105;52.366;17.000;2023-10-31T14:56:34;2.25;;;0.57;;
54197;SDS011;40105;52.366;17.000;2023-10-31T14:59:58;1.30;;;0.65;;
54197;SDS011;40105;52.366;17.000;2023-10-31T15:03:22;2.95;;;1.08;;
54197;SDS011;40105;52.366;17.000;2023-10-31T15:06:46;0.30;;;0.30;;
54197;SDS011;40105;52.366;17.000;2023-10-31T15:10:10;0.77;;;0.60;;
54197;SDS011;40105;52.366;17.000;2023-10-31T15:13:33;1.35;;;0.68;;
54197;SDS011;40105;52.366;17.000;2023-10-31T15:16:57;2.70;;;1.48;;
54197;SDS011;40105;52.366;17.000;2023-10-31T15:20:21;1.08;;;0.90;;
54197;SDS011;40105;52.366;17.000;2023-10-31T15:23:45;0.68;;;0.57;;
54197;SDS011;40105;52.366;17.000;2023-10-31T15:27:09;2.30;;;1.05;;
54197;SDS011;40105;52.366;17.000;2023-10-31T15:30:33;0.75;;;0.70;;
54197;SDS011;40105;52.366;17.000;2023-10-31T15:33:57;1.15;;;0.80;;
54197;SDS011;40105;52.366;17.000;2023-10-31T15:37:21;0.38;;;0.38;;
54197;SDS011;40105;52.366;17.000;2023-10-31T15:40:44;2.17;;;0.90;;
54197;SDS011;40105;52.366;17.000;2023-10-31T15:44:08;1.60;;;0.68;;
54197;SDS011;40105;52.366;17.000;2023-10-31T15:47:32;3.13;;;1.15;;
54197;SDS011;40105;52.366;17.000;2023-10-31T15:50:58;15.30;;;1.10;;
54197;SDS011;40105;52.366;17.000;2023-10-31T15:54:22;0.45;;;0.17;;
54197;SDS011;40105;52.366;17.000;2023-10-31T15:57:47;0.73;;;0.50;;
54197;SDS011;40105;52.366;17.000;2023-10-31T16:01:10;0.50;;;0.50;;
54197;SDS011;40105;52.366;17.000;2023-10-31T16:04:34;0.95;;;0.57;;
54197;SDS011;40105;52.366;17.000;2023-10-31T16:07:58;2.22;;;1.27;;
54197;SDS011;40105;52.366;17.000;2023-10-31T16:11:22;0.93;;;0.68;;
54197;SDS011;40105;52.366;17.000;2023-10-31T16:14:46;0.50;;;0.40;;
54197;SDS011;40105;52.366;17.000;2023-10-31T16:18:10;8.85;;;1.00;;
54197;SDS011;40105;52.366;17.000;2023-10-31T16:21:34;1.15;;;0.70;;
54197;SDS011;40105;52.366;17.000;2023-10-31T16:24:58;2.13;;;0.85;;
54197;SDS011;40105;52.366;17.000;2023-10-31T16:28:23;1.13;;;1.02;;
54197;SDS011;40105;52.366;17.000;2023-10-31T16:31:46;0.65;;;0.57;;
54197;SDS011;40105;52.366;17.000;2023-10-31T16:35:11;1.60;;;0.68;;
54197;SDS011;40105;52.366;17.000;2023-10-31T16:38:34;1.00;;;0.70;;
54197;SDS011;40105;52.366;17.000;2023-10-31T16:41:59;0.75;;;0.65;;
54197;SDS011;40105;52.366;17.000;2023-10-31T16:45:23;1.38;;;0.88;;
54197;SDS011;40105;52.366;17.000;2023-10-31T16:48:47;1.73;;;0.60;;
54197;SDS011;40105;52.366;17.000;2023-10-31T16:52:11;1.25;;;0.80;;
54197;SDS011;40105;52.366;17.000;2023-10-31T16:55:35;35.88;;;9.98;;
54197;SDS011;40105;52.366;17.000;2023-10-31T16:58:58;7.72;;;3.15;;
54197;SDS011;40105;52.366;17.000;2023-10-31T17:02:22;7.68;;;3.10;;
54197;SDS011;40105;52.366;17.000;2023-10-31T17:05:46;2.45;;;1.25;;
54197;SDS011;40105;52.366;17.000;2023-10-31T17:09:10;3.45;;;2.00;;
54197;SDS011;40105;52.366;17.000;2023-10-31T17:12:34;0.20;;;0.20;;
54197;SDS011;40105;52.366;17.000;2023-10-31T17:15:59;0.70;;;0.50;;
54197;SDS011;40105;52.366;17.000;2023-10-31T17:19:23;3.65;;;0.32;;
54197;SDS011;40105;52.366;17.000;2023-10-31T17:22:47;1.23;;;0.85;;
54197;SDS011;40105;52.366;17.000;2023-10-31T17:26:12;3.75;;;1.30;;
54197;SDS011;40105;52.366;17.000;2023-10-31T17:29:36;1.25;;;0.85;;
54197;SDS011;40105;52.366;17.000;2023-10-31T17:33:00;3.63;;;1.60;;
54197;SDS011;40105;52.366;17.000;2023-10-31T17:36:24;5.88;;;3.10;;
54197;SDS011;40105;52.366;17.000;2023-10-31T17:39:48;5.13;;;1.83;;
54197;SDS011;40105;52.366;17.000;2023-10-31T17:43:11;7.60;;;3.53;;
54197;SDS011;40105;52.366;17.000;2023-10-31T17:46:35;10.60;;;3.78;;
54197;SDS011;40105;52.366;17.000;2023-10-31T17:49:59;4.47;;;2.45;;
54197;SDS011;40105;52.366;17.000;2023-10-31T17:53:23;3.38;;;1.80;;
54197;SDS011;40105;52.366;17.000;2023-10-31T17:56:47;3.50;;;1.38;;
54197;SDS011;40105;52.366;17.000;2023-10-31T18:00:11;6.95;;;3.40;;
54197;SDS011;40105;52.366;17.000;2023-10-31T18:03:35;19.55;;;9.48;;
54197;SDS011;40105;52.366;17.000;2023-10-31T18:06:59;5.18;;;2.15;;
54197;SDS011;40105;52.366;17.000;2023-10-31T18:10:23;24.58;;;3.25;;
54197;SDS011;40105;52.366;17.000;2023-10-31T18:13:46;10.77;;;4.22;;
54197;SDS011;40105;52.366;17.000;2023-10-31T18:17:10;7.85;;;4.03;;
54197;SDS011;40105;52.366;17.000;2023-10-31T18:20:34;27.83;;;9.63;;
54197;SDS011;40105;52.366;17.000;2023-10-31T18:23:58;4.38;;;1.08;;
54197;SDS011;40105;52.366;17.000;2023-10-31T18:27:22;3.83;;;2.28;;
54197;SDS011;40105;52.366;17.000;2023-10-31T18:30:47;2.47;;;1.08;;
54197;SDS011;40105;52.366;17.000;2023-10-31T18:34:11;1.00;;;0.65;;
54197;SDS011;40105;52.366;17.000;2023-10-31T18:37:35;1.05;;;0.70;;
54197;SDS011;40105;52.366;17.000;2023-10-31T18:40:59;7.22;;;0.77;;
54197;SDS011;40105;52.366;17.000;2023-10-31T18:44:23;2.90;;;0.95;;
54197;SDS011;40105;52.366;17.000;2023-10-31T18:47:48;3.00;;;1.05;;
54197;SDS011;40105;52.366;17.000;2023-10-31T18:51:12;1.40;;;1.00;;
54197;SDS011;40105;52.366;17.000;2023-10-31T18:54:36;2.53;;;1.40;;
54197;SDS011;40105;52.366;17.000;2023-10-31T18:57:59;1.10;;;0.90;;
54197;SDS011;40105;52.366;17.000;2023-10-31T19:01:23;1.02;;;0.60;;
54197;SDS011;40105;52.366;17.000;2023-10-31T19:04:47;1.80;;;1.23;;
54197;SDS011;40105;52.366;17.000;2023-10-31T19:08:11;2.63;;;1.35;;
54197;SDS011;40105;52.366;17.000;2023-10-31T19:11:37;4.63;;;1.88;;
54197;SDS011;40105;52.366;17.000;2023-10-31T19:15:01;2.20;;;1.08;;
54197;SDS011;40105;52.366;17.000;2023-10-31T19:18:25;3.38;;;1.52;;
54197;SDS011;40105;52.366;17.000;2023-10-31T19:21:49;1.38;;;0.65;;
54197;SDS011;40105;52.366;17.000;2023-10-31T19:25:13;9.48;;;3.15;;
54197;SDS011;40105;52.366;17.000;2023-10-31T19:28:37;1.50;;;0.98;;
54197;SDS011;40105;52.366;17.000;2023-10-31T19:32:01;1.65;;;0.90;;
54197;SDS011;40105;52.366;17.000;2023-10-31T19:35:25;1.05;;;0.95;;
54197;SDS011;40105;52.366;17.000;2023-10-31T19:38:49;2.08;;;0.77;;
54197;SDS011;40105;52.366;17.000;2023-10-31T19:42:13;1.17;;;0.65;;
54197;SDS011;40105;52.366;17.000;2023-10-31T19:45:36;1.23;;;0.80;;
54197;SDS011;40105;52.366;17.000;2023-10-31T19:49:00;1.90;;;0.50;;
54197;SDS011;40105;52.366;17.000;2023-10-31T19:52:24;0.77;;;0.35;;
54197;SDS011;40105;52.366;17.000;2023-10-31T19:55:49;1.33;;;0.40;;
54197;SDS011;40105;52.366;17.000;2023-10-31T19:59:12;2.63;;;0.57;;
54197;SDS011;40105;52.366;17.000;2023-10-31T20:02:37;3.95;;;0.65;;
54197;SDS011;40105;52.366;17.000;2023-10-31T20:06:01;0.55;;;0.55;;
54197;SDS011;40105;52.366;17.000;2023-10-31T20:09:25;0.75;;;0.60;;
54197;SDS011;40105;52.366;17.000;2023-10-31T20:12:49;10.10;;;0.98;;
54197;SDS011;40105;52.366;17.000;2023-10-31T20:16:13;0.52;;;0.35;;
54197;SDS011;40105;52.366;17.000;2023-10-31T20:19:37;1.83;;;0.55;;
54197;SDS011;40105;52.366;17.000;2023-10-31T20:23:00;0.90;;;0.70;;
54197;SDS011;40105;52.366;17.000;2023-10-31T20:26:24;0.52;;;0.40;;
54197;SDS011;40105;52.366;17.000;2023-10-31T20:29:48;1.90;;;0.60;;